createdAt,value
2017-11-19T00:00:41.881Z,6.60
2017-11-19T00:01:41.795Z,6.50
2017-11-19T00:02:41.488Z,7.10
2017-11-19T00:03:41.135Z,7.00
2017-11-19T00:04:41.784Z,7.30
2017-11-19T00:05:42.042Z,6.60
2017-11-19T00:06:41.607Z,7.80
2017-11-19T00:07:41.524Z,7.50
2017-11-19T00:08:41.167Z,7.50
2017-11-19T00:09:41.885Z,7.60
2017-11-19T00:10:41.495Z,6.40
2017-11-19T00:11:41.739Z,6.40
2017-11-19T00:12:41.360Z,6.10
2017-11-19T00:13:41.012Z,6.70
2017-11-19T00:14:41.761Z,6.40
2017-11-19T00:15:41.825Z,5.50
2017-11-19T00:16:41.163Z,6.50
2017-11-19T00:17:41.926Z,5.20
2017-11-19T00:18:41.510Z,5.90
2017-11-19T00:19:42.152Z,5.40
2017-11-19T00:20:41.793Z,5.80
2017-11-19T00:21:41.410Z,5.80
2017-11-19T00:22:41.911Z,4.60
2017-11-19T00:23:41.443Z,4.90
2017-11-19T00:24:41.099Z,4.50
2017-11-19T00:25:42.118Z,4.60
2017-11-19T00:26:42.172Z,4.80
2017-11-19T00:27:41.521Z,4.60
2017-11-19T00:28:41.220Z,4.20
2017-11-19T00:29:42.008Z,3.80
2017-11-19T00:30:41.305Z,3.30
2017-11-19T00:31:42.042Z,3.20
2017-11-19T00:32:42.033Z,3.80
2017-11-19T00:33:41.857Z,4.00
2017-11-19T00:34:41.580Z,3.90
2017-11-19T00:35:41.209Z,3.80
2017-11-19T00:36:41.068Z,3.10
2017-11-19T00:37:41.800Z,3.70
2017-11-19T00:38:41.636Z,3.90
2017-11-19T00:39:41.347Z,3.20
2017-11-19T00:40:42.791Z,4.10
2017-11-19T00:41:41.668Z,3.60
2017-11-19T00:42:41.467Z,3.60
2017-11-19T00:43:41.187Z,3.70
2017-11-19T00:44:41.891Z,3.10
2017-11-19T00:45:51.108Z,3.30
2017-11-19T00:46:51.720Z,3.50
2017-11-19T00:47:51.290Z,3.30
2017-11-19T00:48:52.064Z,4.10
2017-11-19T00:49:51.802Z,3.90
2017-11-19T00:50:51.938Z,4.00
2017-11-19T00:51:51.920Z,3.80
2017-11-19T00:52:51.270Z,4.10
2017-11-19T00:53:52.049Z,3.50
2017-11-19T00:54:51.742Z,3.10
2017-11-19T00:55:51.899Z,3.80
2017-11-19T00:56:51.571Z,4.00
2017-11-19T00:57:51.380Z,3.90
2017-11-19T00:58:51.440Z,3.30
2017-11-19T00:59:52.072Z,3.60
2017-11-19T01:00:51.138Z,4.10
2017-11-19T01:01:51.809Z,3.50
2017-11-19T01:02:51.627Z,3.80
2017-11-19T01:03:51.889Z,3.60
2017-11-19T01:04:51.672Z,3.50
2017-11-19T01:05:51.395Z,3.90
2017-11-19T01:06:51.549Z,3.80
2017-11-19T01:07:51.853Z,4.30
2017-11-19T01:08:51.723Z,3.60
2017-11-19T01:09:51.711Z,3.40
2017-11-19T01:10:52.154Z,3.90
2017-11-19T01:11:52.013Z,3.80
2017-11-19T01:12:51.689Z,3.90
2017-11-19T01:13:51.874Z,3.90
2017-11-19T01:14:51.395Z,3.30
2017-11-19T01:15:50.970Z,3.90
2017-11-19T01:16:51.736Z,3.60
2017-11-19T01:17:51.771Z,3.90
2017-11-19T01:18:51.279Z,3.60
2017-11-19T01:19:51.891Z,3.60
2017-11-19T01:20:51.386Z,3.60
2017-11-19T01:21:52.091Z,3.70
2017-11-19T01:22:51.756Z,3.20
2017-11-19T01:23:51.856Z,3.40
2017-11-19T01:24:51.815Z,4.10
2017-11-19T01:25:51.349Z,3.50
2017-11-19T01:26:51.063Z,4.40
2017-11-19T01:27:51.519Z,4.30
2017-11-19T01:28:51.674Z,3.40
2017-11-19T01:29:51.505Z,3.20
2017-11-19T01:30:52.174Z,3.70
2017-11-19T01:31:51.756Z,3.90
2017-11-19T01:32:52.012Z,3.60
2017-11-19T01:33:51.738Z,3.90
2017-11-19T01:34:51.263Z,3.30
2017-11-19T01:35:51.909Z,4.50
2017-11-19T01:36:51.462Z,3.60
2017-11-19T01:37:51.249Z,3.70
2017-11-19T01:38:51.643Z,3.50
2017-11-19T01:39:51.127Z,3.70
2017-11-19T01:40:51.759Z,4.10
2017-11-19T01:41:51.880Z,4.10
2017-11-19T01:42:51.607Z,3.70
2017-11-19T01:43:51.106Z,3.60
2017-11-19T01:44:51.557Z,3.60
2017-11-19T01:45:51.078Z,3.80
2017-11-19T01:46:51.898Z,4.00
2017-11-19T01:47:51.381Z,4.20
2017-11-19T01:48:52.098Z,4.00
2017-11-19T01:49:58.105Z,4.20
2017-11-19T01:50:52.611Z,3.30
2017-11-19T01:51:51.406Z,3.70
2017-11-19T01:52:53.701Z,3.50
2017-11-19T01:53:51.193Z,3.40
2017-11-19T01:54:54.822Z,3.50
2017-11-19T01:55:52.231Z,3.80
2017-11-19T01:56:52.226Z,4.40
2017-11-19T01:57:54.323Z,4.60
2017-11-19T01:58:51.946Z,4.10
2017-11-19T01:59:51.532Z,3.70
2017-11-19T02:00:51.451Z,4.40
2017-11-19T02:01:52.790Z,3.70
2017-11-19T02:02:52.783Z,4.80
2017-11-19T02:04:20.805Z,4.40
2017-11-19T02:04:52.545Z,4.40
2017-11-19T02:05:53.631Z,4.10
2017-11-19T02:06:51.720Z,4.50
2017-11-19T02:07:51.438Z,4.80
2017-11-19T02:08:52.468Z,4.90
2017-11-19T02:09:51.016Z,4.80
2017-11-19T02:10:52.227Z,4.90
2017-11-19T02:11:51.212Z,5.30
2017-11-19T02:12:51.873Z,4.80
2017-11-19T02:13:51.300Z,4.20
2017-11-19T02:14:51.942Z,4.30
2017-11-19T02:15:51.575Z,5.30
2017-11-19T02:16:51.165Z,5.20
2017-11-19T02:17:51.672Z,4.90
2017-11-19T02:18:51.451Z,5.30
2017-11-19T02:19:51.923Z,5.30
2017-11-19T02:20:51.472Z,6.30
2017-11-19T02:21:51.002Z,6.20
2017-11-19T02:22:51.618Z,5.60
2017-11-19T02:23:51.960Z,5.70
2017-11-19T02:24:51.427Z,7.00
2017-11-19T02:25:51.125Z,5.90
2017-11-19T02:26:51.575Z,6.30
2017-11-19T02:27:51.023Z,6.30
2017-11-19T02:28:51.564Z,6.20
2017-11-19T02:29:51.056Z,6.30
2017-11-19T02:30:51.389Z,5.80
2017-11-19T02:31:51.690Z,6.40
2017-11-19T02:32:51.206Z,5.90
2017-11-19T02:33:51.647Z,5.60
2017-11-19T02:34:51.290Z,5.60
2017-11-19T02:35:51.167Z,6.10
2017-11-19T02:36:51.094Z,6.00
2017-11-19T02:37:51.609Z,5.90
2017-11-19T02:38:51.085Z,6.00
2017-11-19T02:39:51.156Z,5.20
2017-11-19T02:40:51.768Z,5.30
2017-11-19T02:41:51.452Z,5.40
2017-11-19T02:42:52.429Z,4.70
2017-11-19T02:43:51.918Z,4.80
2017-11-19T02:44:51.462Z,5.10
2017-11-19T02:45:51.827Z,3.30
2017-11-19T02:46:51.287Z,5.10
2017-11-19T02:47:51.835Z,3.80
2017-11-19T02:48:51.323Z,4.00
2017-11-19T02:49:51.923Z,3.90
2017-11-19T02:50:51.587Z,3.80
2017-11-19T02:51:51.046Z,2.90
2017-11-19T02:52:51.616Z,4.10
2017-11-19T02:53:51.797Z,3.10
2017-11-19T02:54:51.329Z,4.00
2017-11-19T02:55:51.865Z,3.80
2017-11-19T02:56:51.744Z,3.70
2017-11-19T02:57:51.387Z,3.20
2017-11-19T02:58:51.605Z,3.40
2017-11-19T02:59:51.121Z,2.60
2017-11-19T03:00:51.692Z,4.40
2017-11-19T03:01:51.518Z,3.40
2017-11-19T03:02:51.648Z,3.00
2017-11-19T03:03:51.309Z,3.20
2017-11-19T03:04:51.866Z,3.40
2017-11-19T03:05:51.674Z,3.20
2017-11-19T03:06:51.395Z,3.80
2017-11-19T03:07:51.097Z,3.10
2017-11-19T03:08:51.329Z,3.10
2017-11-19T03:09:51.626Z,2.70
2017-11-19T03:10:51.480Z,3.30
2017-11-19T03:11:52.521Z,3.30
2017-11-19T03:12:51.296Z,3.40
2017-11-19T03:13:51.022Z,3.50
2017-11-19T03:14:51.793Z,3.10
2017-11-19T03:15:51.472Z,3.40
2017-11-19T03:16:51.363Z,3.10
2017-11-19T03:17:51.057Z,3.00
2017-11-19T03:18:51.806Z,3.20
2017-11-19T03:19:51.365Z,2.80
2017-11-19T03:20:51.120Z,3.40
2017-11-19T03:21:51.754Z,3.50
2017-11-19T03:22:51.345Z,3.40
2017-11-19T03:23:51.835Z,3.40
2017-11-19T03:24:51.397Z,3.20
2017-11-19T03:25:51.167Z,2.90
2017-11-19T03:26:51.876Z,3.20
2017-11-19T03:27:51.576Z,3.40
2017-11-19T03:28:51.257Z,2.80
2017-11-19T03:29:51.818Z,2.90
2017-11-19T03:30:51.320Z,3.20
2017-11-19T03:31:51.332Z,3.80
2017-11-19T03:32:51.394Z,3.40
2017-11-19T03:33:51.321Z,3.40
2017-11-19T03:34:51.117Z,3.00
2017-11-19T03:35:51.710Z,3.10
2017-11-19T03:36:51.979Z,3.20
2017-11-19T03:37:51.788Z,2.90
2017-11-19T03:38:51.169Z,3.10
2017-11-19T03:39:52.094Z,3.40
2017-11-19T03:40:51.809Z,2.90
2017-11-19T03:41:51.452Z,2.80
2017-11-19T03:42:51.142Z,3.20
2017-11-19T03:43:51.888Z,2.80
2017-11-19T03:44:50.920Z,3.00
2017-11-19T03:45:52.088Z,3.10
2017-11-19T03:46:51.640Z,3.20
2017-11-19T03:47:51.283Z,3.10
2017-11-19T03:48:51.793Z,2.70
2017-11-19T03:49:51.355Z,2.60
2017-11-19T03:50:51.964Z,3.10
2017-11-19T03:51:51.500Z,2.80
2017-11-19T03:52:50.980Z,2.80
2017-11-19T03:53:51.869Z,3.20
2017-11-19T03:54:51.429Z,2.80
2017-11-19T03:55:51.792Z,3.20
2017-11-19T03:56:51.668Z,3.10
2017-11-19T03:57:51.364Z,2.60
2017-11-19T03:58:51.902Z,3.00
2017-11-19T03:59:51.502Z,3.00
2017-11-19T04:00:51.008Z,2.90
2017-11-19T04:01:51.533Z,3.00
2017-11-19T04:02:51.704Z,3.10
2017-11-19T04:03:51.315Z,3.30
2017-11-19T04:04:51.920Z,2.70
2017-11-19T04:05:51.592Z,3.10
2017-11-19T04:06:51.143Z,3.20
2017-11-19T04:07:51.682Z,2.40
2017-11-19T04:08:51.890Z,2.90
2017-11-19T04:09:51.606Z,2.90
2017-11-19T04:10:51.946Z,3.20
2017-11-19T04:11:51.441Z,2.60
2017-11-19T04:12:51.052Z,3.40
2017-11-19T04:13:51.724Z,2.80
2017-11-19T04:14:51.396Z,2.50
2017-11-19T04:15:51.189Z,3.10
2017-11-19T04:16:51.333Z,2.70
2017-11-19T04:17:51.993Z,2.50
2017-11-19T04:18:51.613Z,2.50
2017-11-19T04:19:51.170Z,2.70
2017-11-19T04:20:51.676Z,2.70
2017-11-19T04:21:51.145Z,1.90
2017-11-19T04:22:51.336Z,2.20
2017-11-19T04:23:51.885Z,2.50
2017-11-19T04:24:51.436Z,3.50
2017-11-19T04:25:50.998Z,3.70
2017-11-19T04:26:51.590Z,2.80
2017-11-19T04:27:51.168Z,2.50
2017-11-19T04:28:51.684Z,2.70
2017-11-19T04:29:51.535Z,2.40
2017-11-19T04:30:51.227Z,3.00
2017-11-19T04:31:51.940Z,2.30
2017-11-19T04:32:51.636Z,2.50
2017-11-19T04:33:51.163Z,2.70
2017-11-19T04:34:51.794Z,2.80
2017-11-19T04:35:51.533Z,2.30
2017-11-19T04:36:51.745Z,2.70
2017-11-19T04:37:51.709Z,2.30
2017-11-19T04:38:51.270Z,2.00
2017-11-19T04:39:51.139Z,2.30
2017-11-19T04:40:51.770Z,2.80
2017-11-19T04:41:51.301Z,2.00
2017-11-19T04:42:51.948Z,2.40
2017-11-19T04:43:51.596Z,2.30
2017-11-19T04:44:51.718Z,1.70
2017-11-19T04:45:51.185Z,2.00
2017-11-19T04:46:51.797Z,1.70
2017-11-19T04:47:51.475Z,2.00
2017-11-19T04:48:51.130Z,2.50
2017-11-19T04:49:51.623Z,1.50
2017-11-19T04:50:51.496Z,1.90
2017-11-19T04:51:51.522Z,1.80
2017-11-19T04:52:51.418Z,2.30
2017-11-19T04:53:50.880Z,1.90
2017-11-19T04:54:51.762Z,1.70
2017-11-19T04:55:51.305Z,1.80
2017-11-19T04:56:51.804Z,1.90
2017-11-19T04:57:51.241Z,2.00
2017-11-19T04:58:51.689Z,1.70
2017-11-19T04:59:51.269Z,1.90
2017-11-19T05:00:51.763Z,1.40
2017-11-19T05:01:51.207Z,1.60
2017-11-19T05:02:51.639Z,1.50
2017-11-19T05:03:51.240Z,1.90
2017-11-19T05:04:51.740Z,1.70
2017-11-19T05:05:51.163Z,1.60
2017-11-19T05:06:51.645Z,2.00
2017-11-19T05:07:51.179Z,1.80
2017-11-19T05:08:51.605Z,1.60
2017-11-19T05:09:51.127Z,1.90
2017-11-19T05:10:51.048Z,1.70
2017-11-19T05:11:51.582Z,1.60
2017-11-19T05:12:51.087Z,1.90
2017-11-19T05:13:51.573Z,1.80
2017-11-19T05:14:51.429Z,1.60
2017-11-19T05:15:51.937Z,1.60
2017-11-19T05:16:51.519Z,1.30
2017-11-19T05:17:51.017Z,1.40
2017-11-19T05:18:51.416Z,1.70
2017-11-19T05:19:51.978Z,1.80
2017-11-19T05:20:51.311Z,1.70
2017-11-19T05:21:51.775Z,1.50
2017-11-19T05:22:51.277Z,1.30
2017-11-19T05:23:51.796Z,1.50
2017-11-19T05:24:51.304Z,1.20
2017-11-19T05:25:51.722Z,1.50
2017-11-19T05:26:50.938Z,1.70
2017-11-19T05:27:51.836Z,1.60
2017-11-19T05:28:51.677Z,1.60
2017-11-19T05:29:51.051Z,1.60
2017-11-19T05:30:51.551Z,1.60
2017-11-19T05:31:51.309Z,1.70
2017-11-19T05:32:51.799Z,1.70
2017-11-19T05:33:52.574Z,1.40
2017-11-19T05:34:50.989Z,1.50
2017-11-19T05:35:51.497Z,1.70
2017-11-19T05:36:51.008Z,1.30
2017-11-19T05:37:51.460Z,1.40
2017-11-19T05:38:50.961Z,1.80
2017-11-19T05:39:51.043Z,1.50
2017-11-19T05:40:51.437Z,1.60
2017-11-19T05:41:51.034Z,1.60
2017-11-19T05:42:51.500Z,1.40
2017-11-19T05:43:51.897Z,1.50
2017-11-19T05:44:51.344Z,1.80
2017-11-19T05:45:51.754Z,1.60
2017-11-19T05:46:51.184Z,1.50
2017-11-19T05:47:51.794Z,1.50
2017-11-19T05:48:51.212Z,1.50
2017-11-19T05:49:51.636Z,1.90
2017-11-19T05:50:51.057Z,1.60
2017-11-19T05:51:51.564Z,1.60
2017-11-19T05:52:51.021Z,1.80
2017-11-19T05:53:51.438Z,1.80
2017-11-19T05:54:51.853Z,2.30
2017-11-19T05:55:51.500Z,1.80
2017-11-19T05:56:51.023Z,1.50
2017-11-19T05:57:52.111Z,1.40
2017-11-19T05:58:51.594Z,1.50
2017-11-19T05:59:51.217Z,2.80
2017-11-19T06:00:51.753Z,1.60
2017-11-19T06:01:51.814Z,1.70
2017-11-19T06:02:51.354Z,1.80
2017-11-19T06:03:51.890Z,1.80
2017-11-19T06:04:51.496Z,1.80
2017-11-19T06:05:50.969Z,2.10
2017-11-19T06:06:51.378Z,1.70
2017-11-19T06:07:51.939Z,2.00
2017-11-19T06:08:51.789Z,1.80
2017-11-19T06:09:51.509Z,2.10
2017-11-19T06:10:50.939Z,2.10
2017-11-19T06:11:51.449Z,1.80
2017-11-19T06:12:51.847Z,1.70
2017-11-19T06:13:51.422Z,1.70
2017-11-19T06:14:51.867Z,1.80
2017-11-19T06:15:51.344Z,1.60
2017-11-19T06:16:51.908Z,1.50
2017-11-19T06:17:51.560Z,1.90
2017-11-19T06:18:51.177Z,1.70
2017-11-19T06:19:51.808Z,1.60
2017-11-19T06:20:51.539Z,2.40
2017-11-19T06:21:51.751Z,1.70
2017-11-19T06:22:51.251Z,2.10
2017-11-19T06:23:51.043Z,2.10
2017-11-19T06:24:51.720Z,2.00
2017-11-19T06:25:51.237Z,1.90
2017-11-19T06:26:51.148Z,1.80
2017-11-19T06:27:51.766Z,2.40
2017-11-19T06:28:51.337Z,2.10
2017-11-19T06:29:51.893Z,1.60
2017-11-19T06:30:52.689Z,1.90
2017-11-19T06:31:51.225Z,1.70
2017-11-19T06:32:51.619Z,2.00
2017-11-19T06:33:51.686Z,2.00
2017-11-19T06:34:51.185Z,2.50
2017-11-19T06:35:51.727Z,2.00
2017-11-19T06:36:51.976Z,2.30
2017-11-19T06:37:51.487Z,2.20
2017-11-19T06:38:51.105Z,1.80
2017-11-19T06:39:51.451Z,2.30
2017-11-19T06:40:51.994Z,2.20
2017-11-19T06:41:51.596Z,2.00
2017-11-19T06:42:51.038Z,1.60
2017-11-19T06:43:51.655Z,1.90
2017-11-19T06:44:51.364Z,2.00
2017-11-19T06:45:51.686Z,2.20
2017-11-19T06:46:51.245Z,1.80
2017-11-19T06:47:51.825Z,1.80
2017-11-19T06:48:51.228Z,1.70
2017-11-19T06:49:51.759Z,2.00
2017-11-19T06:50:51.296Z,2.00
2017-11-19T06:51:51.900Z,2.00
2017-11-19T06:52:51.582Z,1.90
2017-11-19T06:53:51.231Z,1.80
2017-11-19T06:54:51.860Z,2.40
2017-11-19T06:55:51.542Z,1.70
2017-11-19T06:56:51.144Z,2.00
2017-11-19T06:57:51.874Z,1.50
2017-11-19T06:58:51.603Z,2.20
2017-11-19T06:59:51.255Z,2.30
2017-11-19T07:00:51.806Z,2.00
2017-11-19T07:01:51.922Z,1.90
2017-11-19T07:02:51.157Z,2.40
2017-11-19T07:03:51.091Z,2.30
2017-11-19T07:04:52.268Z,1.90
2017-11-19T07:05:51.896Z,2.30
2017-11-19T07:06:51.674Z,2.00
2017-11-19T07:07:51.322Z,2.20
2017-11-19T07:08:52.100Z,2.10
2017-11-19T07:09:51.749Z,2.10
2017-11-19T07:10:51.436Z,2.30
2017-11-19T07:11:51.071Z,2.20
2017-11-19T07:12:51.811Z,1.80
2017-11-19T07:13:51.507Z,1.90
2017-11-19T07:14:51.164Z,1.60
2017-11-19T07:15:51.836Z,1.70
2017-11-19T07:16:51.549Z,2.50
2017-11-19T07:17:51.156Z,1.90
2017-11-19T07:18:51.860Z,2.00
2017-11-19T07:19:51.593Z,1.90
2017-11-19T07:20:51.283Z,2.10
2017-11-19T07:21:51.322Z,1.70
2017-11-19T07:22:51.985Z,2.10
2017-11-19T07:23:51.637Z,1.50
2017-11-19T07:24:51.311Z,1.80
2017-11-19T07:25:51.960Z,1.90
2017-11-19T07:26:51.648Z,1.30
2017-11-19T07:27:51.201Z,1.70
2017-11-19T07:28:51.903Z,1.50
2017-11-19T07:29:51.588Z,1.40
2017-11-19T07:30:52.010Z,1.80
2017-11-19T07:31:51.582Z,1.60
2017-11-19T07:32:51.306Z,1.60
2017-11-19T07:33:51.961Z,1.90
2017-11-19T07:34:51.603Z,1.50
2017-11-19T07:35:51.291Z,1.70
2017-11-19T07:36:52.002Z,1.60
2017-11-19T07:37:51.639Z,1.60
2017-11-19T07:38:51.374Z,1.90
2017-11-19T07:39:51.102Z,1.70
2017-11-19T07:40:51.665Z,1.90
2017-11-19T07:41:51.285Z,1.90
2017-11-19T07:42:51.942Z,2.00
2017-11-19T07:43:51.293Z,2.00
2017-11-19T07:44:51.867Z,2.20
2017-11-19T07:45:51.608Z,1.60
2017-11-19T07:46:51.491Z,2.00
2017-11-19T07:47:51.274Z,2.20
2017-11-19T07:48:51.771Z,1.70
2017-11-19T07:49:51.929Z,2.00
2017-11-19T07:50:51.835Z,2.00
2017-11-19T07:51:51.524Z,2.90
2017-11-19T07:52:51.223Z,1.90
2017-11-19T07:53:51.922Z,1.90
2017-11-19T07:54:51.193Z,1.90
2017-11-19T07:55:51.302Z,1.90
2017-11-19T07:56:52.090Z,1.90
2017-11-19T07:57:51.762Z,2.10
2017-11-19T07:58:51.410Z,2.10
2017-11-19T07:59:51.248Z,1.70
2017-11-19T08:00:53.427Z,2.30
2017-11-19T08:01:51.884Z,1.80
2017-11-19T08:02:51.483Z,1.70
2017-11-19T08:03:51.165Z,2.10
2017-11-19T08:04:51.888Z,2.50
2017-11-19T08:05:51.902Z,2.20
2017-11-19T08:06:51.498Z,2.00
2017-11-19T08:07:51.880Z,2.00
2017-11-19T08:08:51.213Z,2.30
2017-11-19T08:09:51.979Z,2.00
2017-11-19T08:10:51.905Z,2.60
2017-11-19T08:11:51.532Z,1.80
2017-11-19T08:12:51.222Z,2.10
2017-11-19T08:13:51.876Z,1.70
2017-11-19T08:14:51.550Z,2.40
2017-11-19T08:15:51.307Z,2.30
2017-11-19T08:16:52.032Z,3.00
2017-11-19T08:17:51.719Z,2.60
2017-11-19T08:18:51.403Z,2.10
2017-11-19T08:19:51.141Z,2.40
2017-11-19T08:20:51.983Z,2.40
2017-11-19T08:21:52.073Z,2.80
2017-11-19T08:22:51.984Z,2.60
2017-11-19T08:23:51.819Z,2.30
2017-11-19T08:24:51.397Z,2.80
2017-11-19T08:25:52.134Z,2.00
2017-11-19T08:26:51.796Z,2.50
2017-11-19T08:27:51.834Z,2.40
2017-11-19T08:28:51.192Z,2.70
2017-11-19T08:29:52.540Z,2.10
2017-11-19T08:30:51.191Z,2.10
2017-11-19T08:31:51.963Z,2.40
2017-11-19T08:32:51.640Z,2.60
2017-11-19T08:33:51.244Z,2.50
2017-11-19T08:34:52.063Z,2.60
2017-11-19T08:35:51.674Z,2.50
2017-11-19T08:36:51.731Z,2.30
2017-11-19T08:37:51.586Z,2.20
2017-11-19T08:38:51.251Z,2.10
2017-11-19T08:39:52.409Z,2.30
2017-11-19T08:40:52.074Z,2.00
2017-11-19T08:41:51.297Z,2.30
2017-11-19T08:42:51.990Z,2.40
2017-11-19T08:43:51.564Z,2.20
2017-11-19T08:44:51.182Z,1.80
2017-11-19T08:45:51.937Z,2.20
2017-11-19T08:46:51.733Z,2.40
2017-11-19T08:47:51.551Z,2.50
2017-11-19T08:48:51.571Z,2.40
2017-11-19T08:49:52.015Z,2.50
2017-11-19T08:50:51.605Z,2.30
2017-11-19T08:51:51.195Z,2.00
2017-11-19T08:52:51.891Z,2.50
2017-11-19T08:53:52.007Z,2.20
2017-11-19T08:54:51.669Z,2.40
2017-11-19T08:55:51.631Z,2.80
2017-11-19T08:56:51.900Z,2.20
2017-11-19T08:57:51.834Z,2.20
2017-11-19T08:58:51.255Z,2.40
2017-11-19T08:59:51.877Z,2.60
2017-11-19T09:00:51.558Z,3.20
2017-11-19T09:01:51.385Z,2.20
2017-11-19T09:02:52.635Z,2.90
2017-11-19T09:03:51.349Z,2.40
2017-11-19T09:04:52.038Z,2.50
2017-11-19T09:05:51.839Z,2.40
2017-11-19T09:06:51.437Z,2.20
2017-11-19T09:07:51.285Z,2.00
2017-11-19T09:08:52.105Z,1.90
2017-11-19T09:09:51.937Z,2.20
2017-11-19T09:10:51.457Z,2.70
2017-11-19T09:11:51.194Z,2.60
2017-11-19T09:12:51.927Z,2.40
2017-11-19T09:13:51.603Z,2.40
2017-11-19T09:14:51.601Z,2.70
2017-11-19T09:15:51.505Z,2.40
2017-11-19T09:16:51.242Z,2.10
2017-11-19T09:17:51.860Z,2.60
2017-11-19T09:18:52.243Z,2.60
2017-11-19T09:19:51.991Z,2.50
2017-11-19T09:20:52.480Z,2.20
2017-11-19T09:21:51.151Z,2.30
2017-11-19T09:22:51.872Z,2.20
2017-11-19T09:23:51.592Z,2.30
2017-11-19T09:24:51.267Z,2.50
2017-11-19T09:25:51.324Z,2.60
2017-11-19T09:26:51.988Z,2.50
2017-11-19T09:27:51.668Z,1.90
2017-11-19T09:28:51.300Z,2.10
2017-11-19T09:29:51.744Z,2.90
2017-11-19T09:30:51.461Z,3.60
2017-11-19T09:31:53.255Z,2.80
2017-11-19T09:32:51.216Z,2.10
2017-11-19T09:33:53.378Z,2.90
2017-11-19T09:34:52.021Z,2.90
2017-11-19T09:35:52.227Z,3.10
2017-11-19T09:36:52.477Z,2.40
2017-11-19T09:37:52.471Z,2.20
2017-11-19T09:38:52.213Z,2.70
2017-11-19T09:39:52.486Z,2.80
2017-11-19T09:40:52.452Z,2.80
2017-11-19T09:41:51.825Z,2.80
2017-11-19T09:42:52.927Z,3.00
2017-11-19T09:43:51.725Z,2.10
2017-11-19T09:44:52.521Z,2.40
2017-11-19T09:45:52.420Z,2.90
2017-11-19T09:46:51.387Z,2.10
2017-11-19T09:47:51.353Z,2.90
2017-11-19T09:48:52.281Z,3.20
2017-11-19T09:49:52.077Z,2.30
2017-11-19T09:50:52.018Z,2.50
2017-11-19T09:51:52.165Z,3.60
2017-11-19T09:52:52.064Z,3.20
2017-11-19T09:53:52.099Z,3.20
2017-11-19T09:54:52.047Z,4.80
2017-11-19T09:55:52.021Z,2.60
2017-11-19T09:56:51.983Z,3.10
2017-11-19T09:57:51.965Z,2.60
2017-11-19T09:58:52.066Z,2.90
2017-11-19T09:59:52.040Z,2.60
2017-11-19T10:00:51.987Z,2.90
2017-11-19T10:01:51.990Z,2.70
2017-11-19T10:02:52.030Z,3.90
2017-11-19T10:03:51.573Z,2.90
2017-11-19T10:04:51.516Z,2.70
2017-11-19T10:05:51.745Z,3.00
2017-11-19T10:06:51.607Z,2.90
2017-11-19T10:07:51.550Z,2.60
2017-11-19T10:08:51.492Z,2.70
2017-11-19T10:09:51.532Z,2.50
2017-11-19T10:10:51.660Z,2.60
2017-11-19T10:11:51.704Z,2.90
2017-11-19T10:12:52.287Z,2.70
2017-11-19T10:13:52.268Z,2.50
2017-11-19T10:14:52.803Z,3.00
2017-11-19T10:15:51.716Z,2.80
2017-11-19T10:16:51.489Z,2.80
2017-11-19T10:17:51.521Z,2.90
2017-11-19T10:18:51.478Z,2.90
2017-11-19T10:19:51.559Z,2.70
2017-11-19T10:20:51.538Z,2.40
2017-11-19T10:21:51.541Z,2.80
2017-11-19T10:22:51.824Z,2.90
2017-11-19T10:23:52.540Z,2.60
2017-11-19T10:24:52.248Z,2.30
2017-11-19T10:25:52.229Z,3.00
2017-11-19T10:26:52.268Z,2.40
2017-11-19T10:27:54.815Z,2.30
2017-11-19T10:28:51.348Z,2.60
2017-11-19T10:29:52.114Z,2.40
2017-11-19T10:30:51.439Z,2.10
2017-11-19T10:31:51.337Z,2.80
2017-11-19T10:32:52.176Z,2.60
2017-11-19T10:33:51.995Z,2.00
2017-11-19T10:34:51.859Z,3.20
2017-11-19T10:35:54.908Z,3.00
2017-11-19T10:36:51.713Z,2.70
2017-11-19T10:37:51.425Z,2.90
2017-11-19T10:38:52.193Z,3.00
2017-11-19T10:39:52.168Z,2.30
2017-11-19T10:40:52.013Z,2.60
2017-11-19T10:41:51.756Z,2.30
2017-11-19T10:42:51.467Z,2.60
2017-11-19T10:43:51.239Z,2.40
2017-11-19T10:44:53.085Z,2.60
2017-11-19T10:45:51.830Z,2.80
2017-11-19T10:46:51.653Z,2.60
2017-11-19T10:47:51.506Z,2.30
2017-11-19T10:48:51.347Z,2.00
2017-11-19T10:49:51.174Z,2.30
2017-11-19T10:50:52.093Z,2.70
2017-11-19T10:51:56.993Z,3.30
2017-11-19T10:52:56.815Z,2.50
2017-11-19T10:53:59.266Z,3.10
2017-11-19T10:54:57.641Z,2.20
2017-11-19T10:55:58.065Z,2.20
2017-11-19T10:56:56.844Z,2.10
2017-11-19T10:57:57.388Z,2.20
2017-11-19T10:58:57.069Z,2.30
2017-11-19T10:59:56.762Z,2.10
2017-11-19T11:00:57.388Z,2.50
2017-11-19T11:01:56.709Z,2.60
2017-11-19T11:02:57.428Z,2.90
2017-11-19T11:03:57.128Z,2.30
2017-11-19T11:04:56.897Z,2.10
2017-11-19T11:05:57.317Z,2.20
2017-11-19T11:06:57.744Z,2.00
2017-11-19T11:07:58.049Z,1.80
2017-11-19T11:08:56.782Z,1.30
2017-11-19T11:09:57.411Z,1.60
2017-11-19T11:10:57.230Z,1.70
2017-11-19T11:11:57.076Z,1.50
2017-11-19T11:12:57.543Z,1.60
2017-11-19T11:13:57.050Z,1.60
2017-11-19T11:14:57.384Z,1.40
2017-11-19T11:15:57.194Z,1.70
2017-11-19T11:16:57.034Z,1.40
2017-11-19T11:17:57.419Z,1.20
2017-11-19T11:18:57.240Z,1.50
2017-11-19T11:19:56.896Z,1.30
2017-11-19T11:20:56.698Z,1.20
2017-11-19T11:21:58.567Z,1.50
2017-11-19T11:22:57.372Z,1.40
2017-11-19T11:23:57.289Z,1.50
2017-11-19T11:24:56.963Z,1.20
2017-11-19T11:25:56.702Z,1.40
2017-11-19T11:26:57.362Z,1.50
2017-11-19T11:27:57.932Z,1.90
2017-11-19T11:28:58.339Z,1.60
2017-11-19T11:29:57.275Z,1.60
2017-11-19T11:30:57.633Z,1.50
2017-11-19T11:31:57.433Z,1.20
2017-11-19T11:32:57.247Z,1.10
2017-11-19T11:33:57.657Z,1.10
2017-11-19T11:34:57.463Z,1.60
2017-11-19T11:35:57.192Z,1.20
2017-11-19T11:36:56.978Z,1.40
2017-11-19T11:37:56.982Z,1.60
2017-11-19T11:38:57.700Z,1.40
2017-11-19T11:39:57.682Z,1.50
2017-11-19T11:40:57.512Z,1.70
2017-11-19T11:41:57.391Z,1.10
2017-11-19T11:42:57.942Z,1.30
2017-11-19T11:43:56.702Z,1.30
2017-11-19T11:44:57.054Z,1.60
2017-11-19T11:45:56.858Z,1.70
2017-11-19T11:46:57.728Z,2.10
2017-11-19T11:47:57.595Z,1.60
2017-11-19T11:48:57.606Z,1.80
2017-11-19T11:49:57.445Z,1.20
2017-11-19T11:50:57.961Z,1.60
2017-11-19T11:51:56.874Z,1.60
2017-11-19T11:52:59.055Z,1.70
2017-11-19T11:53:56.803Z,1.80
2017-11-19T11:54:57.581Z,1.50
2017-11-19T11:55:57.352Z,1.80
2017-11-19T11:56:58.570Z,2.00
2017-11-19T11:57:57.384Z,2.10
2017-11-19T11:58:57.271Z,2.20
2017-11-19T11:59:57.136Z,1.80
2017-11-19T12:00:56.900Z,2.50
2017-11-19T12:01:57.339Z,1.80
2017-11-19T12:02:56.848Z,2.00
2017-11-19T12:03:57.533Z,1.80
2017-11-19T12:04:57.387Z,2.10
2017-11-19T12:05:57.118Z,1.90
2017-11-19T12:06:57.043Z,2.50
2017-11-19T12:07:57.043Z,3.20
2017-11-19T12:08:56.878Z,5.00
2017-11-19T12:09:57.745Z,3.30
2017-11-19T12:10:57.420Z,2.70
2017-11-19T12:11:57.330Z,3.40
2017-11-19T12:12:57.078Z,5.10
2017-11-19T12:13:57.692Z,2.10
2017-11-19T12:14:57.534Z,1.80
2017-11-19T12:15:57.110Z,2.10
2017-11-19T12:16:57.629Z,2.60
2017-11-19T12:17:57.732Z,1.90
2017-11-19T12:18:57.590Z,2.10
2017-11-19T12:19:58.589Z,2.00
2017-11-19T12:20:57.650Z,2.30
2017-11-19T12:21:58.120Z,2.20
2017-11-19T12:22:58.088Z,2.40
2017-11-19T12:23:57.851Z,2.60
2017-11-19T12:24:58.489Z,4.20
2017-11-19T12:25:59.129Z,3.90
2017-11-19T12:26:57.079Z,3.30
2017-11-19T12:27:57.106Z,3.70
2017-11-19T12:28:57.769Z,3.30
2017-11-19T12:29:59.168Z,3.70
2017-11-19T12:30:57.681Z,3.80
2017-11-19T12:31:57.745Z,3.60
2017-11-19T12:32:57.752Z,3.10
2017-11-19T12:33:59.100Z,2.80
2017-11-19T12:34:57.869Z,2.90
2017-11-19T12:35:56.964Z,2.40
2017-11-19T12:36:57.039Z,3.10
2017-11-19T12:37:56.928Z,3.80
2017-11-19T12:38:56.992Z,3.10
2017-11-19T12:39:56.877Z,3.40
2017-11-19T12:40:57.694Z,4.40
2017-11-19T12:41:57.724Z,3.00
2017-11-19T12:42:57.982Z,2.90
2017-11-19T12:43:57.155Z,4.00
2017-11-19T12:44:57.162Z,4.00
2017-11-19T12:45:58.789Z,3.60
2017-11-19T12:46:58.273Z,2.50
2017-11-19T12:47:57.353Z,3.50
2017-11-19T12:48:58.424Z,3.60
2017-11-19T12:49:57.340Z,3.00
2017-11-19T12:50:58.445Z,3.30
2017-11-19T12:51:58.688Z,2.80
2017-11-19T12:52:57.623Z,2.60
2017-11-19T12:53:57.579Z,3.40
2017-11-19T12:54:58.469Z,3.60
2017-11-19T12:55:58.746Z,3.10
2017-11-19T12:57:00.152Z,3.20
2017-11-19T12:57:57.208Z,3.40
2017-11-19T12:58:57.842Z,4.80
2017-11-19T12:59:57.712Z,4.10
2017-11-19T13:00:58.716Z,4.00
2017-11-19T13:01:57.966Z,3.80
2017-11-19T13:02:58.302Z,3.60
2017-11-19T13:03:57.426Z,3.60
2017-11-19T13:04:58.084Z,3.20
2017-11-19T13:06:00.106Z,3.40
2017-11-19T13:06:57.671Z,4.70
2017-11-19T13:07:57.711Z,3.60
2017-11-19T13:08:59.584Z,4.40
2017-11-19T13:09:57.684Z,4.80
2017-11-19T13:10:58.012Z,3.70
2017-11-19T13:11:56.887Z,4.00
2017-11-19T13:12:57.786Z,4.30
2017-11-19T13:13:57.890Z,3.40
2017-11-19T13:14:57.976Z,3.40
2017-11-19T13:15:57.666Z,4.00
2017-11-19T13:16:59.112Z,3.70
2017-11-19T13:17:57.907Z,4.40
2017-11-19T13:18:58.564Z,4.40